KSFF/SFF METAR and TAF weather

Enter ICAO airport designator
Station Type Date Time Source
KSFF METAR 2019/08/20 08:53 UTC NOAA

KSFF 200853Z AUTO 04004KT 10SM CLR 16/08 A2997 RMK AO2 SLP135 T01610078 51008


Station Type Date Time Source
KSFF Decoded METAR 2019/08/20 08:53 UTC NOAA

FELTS FIELD, WA, United States (KSFF) 47-41N 117-19W 609M
Aug 20, 2019 - 04:53 AM EDT / 2019.08.20 0853 UTC
Wind: from the NE (040 degrees) at 5 MPH (4 KT):0
Visibility: 10 mile(s):0
Sky conditions: clear
Temperature: 61.0 F (16.1 C)
Dew Point: 46.0 F (7.8 C)
Relative Humidity: 57%
Pressure (altimeter): 29.97 in. Hg (1014 hPa)
Pressure tendency: 0.02 inches (0.8 hPa) higher than three hours ago
ob: KSFF 200853Z AUTO 04004KT 10SM CLR 16/08 A2997 RMK AO2 SLP135 T01610078 51008
cycle: 9

Station Type Date Time Source
KSFF TAF 2019/08/20 06:22 UTC NOAA

TAF KSFF 200520Z 2006/2106 VRB03KT P6SM FEW250

Example: see airport list